Florin, Pennsylvania
Current Conditions -  °F | °C
As of 10:53 PM on Saturday 20 Dec 2014 (Local Time) from KLNS Reporting Station
Haze Haze  
Wind Chill: 23°   Ceiling: 3400
Heat Index: 28°   Visibility: 6mi
Dew Point: 22°   Wind: 5mph
Humidity: 78%   Direction: 240°WSW
Pressure: 30.29"   Gusts: NA
Location:  40.1077°N, 76.5054°W
Report Text: KLNS 210353Z AUTO 24004KT 6SM HZ OVC034 M02/M06 A3029 RMK AO2 SLP261 T10221056
Loading
Personal Weather Stations






























Interactive Weather Map New forecast layout! Learn more

10-Day Weather Forecast

Advertisements
Track Severe Weather on mobile